Portada
METAR-TAF:

METAR-TAF

Aeropuertos :

Gran Canaria, España

Aeropuerto de Gran Canaria

latitud: 27-56N, longitud: 015-23W, altitud: 23 m

Observación

El informe se hizo hace 24 minutos, a las 22:30 UTC
Viento 16 kt del norte-noreste
Temperatura 24°C
Humedad 74%
Presión 1016 hPa
Visibilidad 10 km o más
Escasas nubes a una altura de 2000 ft

METAR: GCLP 202230Z 03016KT 9999 FEW020 24/19 Q1016 NOSIG

Hora: 23:54 (22:54 UTC)

Pronóstico

El informe se hizo hace 2 horas y 54 minutos, a las 20:00 UTC
Pronóstico válido del 20 a las 21 UTC al 21 a las 21 UTC
Viento 18 kt del norte-noreste
Visibilidad 10 km o más
Escasas nubes a una altura de 2000 ft

TAF: GCLP 202000Z 2021/2121 02018KT 9999 FEW020 TX30/2113Z TN23/2106Z

Observaciones y pronósticos meteorológicos de más de 4000 aeropuertos (mensajes METAR y TAF).

Los puntos amarillos y rojos representan las estaciones disponibles.

Ponga el ratón en el punto deseado para ver el nombre de la estación.

Haga clic para ver las observaciones y los pronósticos meteorológicos.

Para cambiar el mapa : haga clic en los botones verdes con una cruz de color negro para hacer un zoom, en el botón verde con un guión para alejar o en las flechas verdes para mapas adyacentes.


METAR-TAF: